White Plains, NY

1:05 AM EDT on September 15, 2014 (GMT -0400)
scarsdale/nr | Change Station
CLOSE
Current Station
Personal Weather Station
Location: Scarsdale, NY
Elevation: 249 ft
Nearby Weather Stations

Elev 249 ft 41.01 °N, 73.79 °W | Updated 55 seconds ago

Clear
Clear
51.6 °F
Feels Like 51.6 °F
N
0.0
Wind Variable Wind from NW
Gusts 0.0 mph

Today
High -- | Low -- °F
--% Chance of Precip.
Yesterday
High -- | Low -- °F
Precip. -- in
6:35 AM 7:04 PM
Waning Gibbous, 59% visible
Pressure 30.20 in
Visibility 10.0 miles
Clouds Clear
Dew Point 47 °F
Humidity 83%
Rainfall 0.00 in
Snow Depth Not available.
UV 0 out of 12
Pollen 4.20 out of 12
PM2.5 Good
Flu Activity Not available.
METAR KHPN 150356Z 30005KT 10SM CLR 11/07 A3019 RMK AO2 SLP225 T01060072

More Conditions Fewer Conditions

Pressure 30.20 in
Visibility 10.0 miles
Clouds Clear
Dew Point 47 °F
Humidity 83%
Rainfall 0.00 in
Snow Depth Not available.
UV 0 out of 12
Pollen 4.20 out of 12
PM2.5 Good
Flu Activity Not available.
METAR KHPN 150356Z 30005KT 10SM CLR 11/07 A3019 RMK AO2 SLP225 T01060072

More Conditions Fewer Conditions

10-Day Weather Forecast

Almanac

Astronomy

Sep. 15, 2014 Rise Set
Actual Time 6:35 AM EDT 7:04 PM EDT
Civil Twilight 6:07 AM EDT 7:31 PM EDT
Nautical Twilight 5:35 AM EDT 8:04 PM EDT
Astronomical Twilight 5:01 AM EDT 8:37 PM EDT
Moon 11:42 PM EDT 1:36 PM EDT
Length of Visible Light 13h 23m
Length of Day
12h 28m
Tomorrow will be 2m 42s shorter.
Waning Gibbous, 59% of the Moon is Illuminated
Today
Waning Gibbous
Sep 15
Last Quarter
Sep 24
New
Oct 1
First Quarter
Oct 8
Full

Today's Extremes

State Highs State Lows

Community

WunderPhotos

Upload Photos

1,753,411 photos uploaded!

Nearby

Air Quality

  Air Quality AQ Index Pollutant
Yesterday Good
OZONE
Yesterday Good
PM2.5
Current Good
PM2.5
Sunday Good
OZONE
Sunday Good
PM2.5
Monday Good
OZONE
Monday Good
PM2.5

Snow Depth

Station Depth Elevation
No new snow has been reported.

Earthquake Activity

City Distance Mag. Time & Date
No recent earthquake activity has been reported nearby.
Minimum magnitude displayed is 2.5.

Coastal Water Temperatures

Place Temperature
Kings Point, NY 69.1 °F
Bridgeport, CT 70.0 °F

Nearby Weather Stations